sensor_id;sensor_type;location;lat;lon;timestamp;pressure;altitude;pressure_sealevel;temperature;humidity
31346;BME280;21711;49.708;18.568;2022-09-13T00:01:04;97285.66;;;9.57;100.00
31346;BME280;21711;49.708;18.568;2022-09-13T00:03:32;97282.50;;;9.50;100.00
31346;BME280;21711;49.708;18.568;2022-09-13T00:06:09;97274.84;;;9.53;100.00
31346;BME280;21711;49.708;18.568;2022-09-13T00:08:36;97276.69;;;9.47;100.00
31346;BME280;21711;49.708;18.568;2022-09-13T00:11:04;97273.53;;;9.40;100.00
31346;BME280;21711;49.708;18.568;2022-09-13T00:13:31;97269.03;;;9.41;100.00
31346;BME280;21711;49.708;18.568;2022-09-13T00:15:59;97270.91;;;9.35;100.00
31346;BME280;21711;49.708;18.568;2022-09-13T00:18:30;97270.09;;;9.50;100.00
31346;BME280;21711;49.708;18.568;2022-09-13T00:21:12;97269.06;;;9.46;100.00
31346;BME280;21711;49.708;18.568;2022-09-13T00:23:47;97270.34;;;9.38;100.00
31346;BME280;21711;49.708;18.568;2022-09-13T00:26:18;97271.41;;;9.27;100.00
31346;BME280;21711;49.708;18.568;2022-09-13T00:28:49;97270.91;;;9.25;100.00
31346;BME280;21711;49.708;18.568;2022-09-13T00:31:21;97265.63;;;9.25;100.00
31346;BME280;21711;49.708;18.568;2022-09-13T00:33:50;97265.09;;;9.12;100.00
31346;BME280;21711;49.708;18.568;2022-09-13T00:36:17;97260.31;;;9.04;100.00
31346;BME280;21711;49.708;18.568;2022-09-13T00:38:45;97263.75;;;9.10;100.00
31346;BME280;21711;49.708;18.568;2022-09-13T00:41:16;97268.50;;;9.07;100.00
31346;BME280;21711;49.708;18.568;2022-09-13T00:43:54;97268.22;;;9.04;100.00
31346;BME280;21711;49.708;18.568;2022-09-13T00:46:45;97268.22;;;8.93;100.00
31346;BME280;21711;49.708;18.568;2022-09-13T00:49:29;97267.47;;;9.03;100.00
31346;BME280;21711;49.708;18.568;2022-09-13T00:52:02;97264.28;;;9.01;100.00
31346;BME280;21711;49.708;18.568;2022-09-13T00:54:43;97267.97;;;9.00;100.00
31346;BME280;21711;49.708;18.568;2022-09-13T00:57:12;97257.94;;;8.97;100.00
31346;BME280;21711;49.708;18.568;2022-09-13T01:00:01;97262.94;;;8.99;100.00
31346;BME280;21711;49.708;18.568;2022-09-13T01:02:41;97264.53;;;9.00;100.00
31346;BME280;21711;49.708;18.568;2022-09-13T01:05:10;97264.28;;;8.96;100.00
31346;BME280;21711;49.708;18.568;2022-09-13T01:07:38;97255.28;;;8.87;100.00
31346;BME280;21711;49.708;18.568;2022-09-13T01:10:06;97265.59;;;8.93;100.00
31346;BME280;21711;49.708;18.568;2022-09-13T01:15:10;97255.28;;;8.87;100.00
31346;BME280;21711;49.708;18.568;2022-09-13T01:17:38;97257.41;;;8.85;100.00
31346;BME280;21711;49.708;18.568;2022-09-13T01:20:07;97251.59;;;8.82;100.00
31346;BME280;21711;49.708;18.568;2022-09-13T01:44:23;97233.09;;;8.62;100.00
31346;BME280;21711;49.708;18.568;2022-09-13T01:50:41;97232.28;;;8.56;100.00
31346;BME280;21711;49.708;18.568;2022-09-13T01:53:22;97228.78;;;8.45;100.00
31346;BME280;21711;49.708;18.568;2022-09-13T01:56:09;97222.19;;;8.42;100.00
31346;BME280;21711;49.708;18.568;2022-09-13T01:58:47;97226.16;;;8.50;100.00
31346;BME280;21711;49.708;18.568;2022-09-13T02:01:42;97221.69;;;8.51;100.00
31346;BME280;21711;49.708;18.568;2022-09-13T02:04:21;97228.78;;;8.45;100.00
31346;BME280;21711;49.708;18.568;2022-09-13T02:07:26;97220.66;;;8.52;100.00
31346;BME280;21711;49.708;18.568;2022-09-13T02:10:05;97214.59;;;8.51;100.00
31346;BME280;21711;49.708;18.568;2022-09-13T02:12:35;97214.88;;;8.55;100.00
31346;BME280;21711;49.708;18.568;2022-09-13T02:15:12;97199.56;;;8.52;100.00
31346;BME280;21711;49.708;18.568;2022-09-13T02:18:23;97205.09;;;8.50;100.00
31346;BME280;21711;49.708;18.568;2022-09-13T02:20:53;97207.72;;;8.50;100.00
31346;BME280;21711;49.708;18.568;2022-09-13T02:23:33;97198.47;;;8.42;100.00
31346;BME280;21711;49.708;18.568;2022-09-13T02:26:03;97197.44;;;8.44;100.00
31346;BME280;21711;49.708;18.568;2022-09-13T02:28:37;97192.44;;;8.42;100.00
31346;BME280;21711;49.708;18.568;2022-09-13T02:31:08;97196.91;;;8.36;100.00
31346;BME280;21711;49.708;18.568;2022-09-13T02:33:43;97196.84;;;8.21;100.00
31346;BME280;21711;49.708;18.568;2022-09-13T02:36:19;97198.41;;;8.16;100.00
31346;BME280;21711;49.708;18.568;2022-09-13T02:39:01;97194.19;;;8.15;100.00
31346;BME280;21711;49.708;18.568;2022-09-13T02:44:17;97188.13;;;8.10;100.00
31346;BME280;21711;49.708;18.568;2022-09-13T02:47:37;97186.03;;;8.17;100.00
31346;BME280;21711;49.708;18.568;2022-09-13T02:52:49;97175.44;;;8.01;100.00
31346;BME280;21711;49.708;18.568;2022-09-13T02:59:05;97181.75;;;7.95;100.00
31346;BME280;21711;49.708;18.568;2022-09-13T03:01:36;97181.75;;;7.95;100.00
31346;BME280;21711;49.708;18.568;2022-09-13T03:04:05;97177.53;;;7.99;100.00
31346;BME280;21711;49.708;18.568;2022-09-13T03:06:32;97175.66;;;7.95;100.00
31346;BME280;21711;49.708;18.568;2022-09-13T03:09:02;97177.78;;;7.93;100.00
31346;BME280;21711;49.708;18.568;2022-09-13T03:14:55;97170.94;;;7.92;100.00
31346;BME280;21711;49.708;18.568;2022-09-13T03:17:41;97173.81;;;7.90;100.00
31346;BME280;21711;49.708;18.568;2022-09-13T03:23:34;97174.81;;;7.84;100.00
31346;BME280;21711;49.708;18.568;2022-09-13T03:26:35;97175.13;;;7.87;100.00
31346;BME280;21711;49.708;18.568;2022-09-13T03:29:56;97174.88;;;7.89;100.00
31346;BME280;21711;49.708;18.568;2022-09-13T03:38:28;97163.78;;;7.82;100.00
31346;BME280;21711;49.708;18.568;2022-09-13T03:41:17;97157.69;;;7.76;100.00
31346;BME280;21711;49.708;18.568;2022-09-13T03:43:52;97158.25;;;7.78;100.00
31346;BME280;21711;49.708;18.568;2022-09-13T03:46:39;97165.63;;;7.86;100.00
31346;BME280;21711;49.708;18.568;2022-09-13T03:49:13;97156.16;;;7.85;100.00
31346;BME280;21711;49.708;18.568;2022-09-13T03:51:44;97161.13;;;7.82;100.00
31346;BME280;21711;49.708;18.568;2022-09-13T03:54:23;97147.97;;;7.82;100.00
31346;BME280;21711;49.708;18.568;2022-09-13T03:57:12;97150.03;;;7.74;100.00
31346;BME280;21711;49.708;18.568;2022-09-13T03:59:47;97145.53;;;7.65;100.00
31346;BME280;21711;49.708;18.568;2022-09-13T04:02:16;97148.97;;;7.65;100.00
31346;BME280;21711;49.708;18.568;2022-09-13T04:04:45;97148.44;;;7.68;100.00
31346;BME280;21711;49.708;18.568;2022-09-13T04:07:19;97139.25;;;7.71;100.00
31346;BME280;21711;49.708;18.568;2022-09-13T04:09:47;97135.88;;;7.81;100.00
31346;BME280;21711;49.708;18.568;2022-09-13T04:12:16;97137.72;;;7.85;100.00
31346;BME280;21711;49.708;18.568;2022-09-13T04:14:44;97140.34;;;7.80;100.00
31346;BME280;21711;49.708;18.568;2022-09-13T04:17:12;97146.63;;;7.69;100.00
31346;BME280;21711;49.708;18.568;2022-09-13T04:19:40;97144.72;;;7.59;100.00
31346;BME280;21711;49.708;18.568;2022-09-13T04:22:08;97142.41;;;7.68;100.00
31346;BME280;21711;49.708;18.568;2022-09-13T04:24:35;97150.31;;;7.68;100.00
31346;BME280;21711;49.708;18.568;2022-09-13T04:27:02;97147.38;;;7.69;100.00
31346;BME280;21711;49.708;18.568;2022-09-13T04:29:31;97143.72;;;7.70;100.00
31346;BME280;21711;49.708;18.568;2022-09-13T04:31:59;97142.47;;;7.83;100.00
31346;BME280;21711;49.708;18.568;2022-09-13T04:34:27;97145.69;;;8.01;100.00
31346;BME280;21711;49.708;18.568;2022-09-13T04:36:54;97152.09;;;8.26;100.00
31346;BME280;21711;49.708;18.568;2022-09-13T04:39:21;97149.50;;;8.57;100.00
31346;BME280;21711;49.708;18.568;2022-09-13T04:41:50;97157.72;;;8.92;100.00
31346;BME280;21711;49.708;18.568;2022-09-13T04:44:20;97162.72;;;9.14;100.00
31346;BME280;21711;49.708;18.568;2022-09-13T04:46:50;97153.97;;;9.45;100.00
31346;BME280;21711;49.708;18.568;2022-09-13T04:49:18;97159.22;;;9.60;100.00
31346;BME280;21711;49.708;18.568;2022-09-13T04:51:46;97158.75;;;10.09;100.00
31346;BME280;21711;49.708;18.568;2022-09-13T04:54:14;97156.16;;;10.54;100.00
31346;BME280;21711;49.708;18.568;2022-09-13T04:56:43;97157.97;;;10.99;100.00
31346;BME280;21711;49.708;18.568;2022-09-13T04:59:12;97152.38;;;11.30;100.00
31346;BME280;21711;49.708;18.568;2022-09-13T05:01:40;97162.16;;;11.35;100.00
31346;BME280;21711;49.708;18.568;2022-09-13T05:04:08;97153.34;;;11.15;100.00
31346;BME280;21711;49.708;18.568;2022-09-13T05:06:36;97159.13;;;11.17;100.00
31346;BME280;21711;49.708;18.568;2022-09-13T05:09:04;97161.81;;;11.12;100.00
31346;BME280;21711;49.708;18.568;2022-09-13T05:11:33;97152.09;;;11.02;100.00
31346;BME280;21711;49.708;18.568;2022-09-13T05:14:01;97156.50;;;10.82;100.00
31346;BME280;21711;49.708;18.568;2022-09-13T05:16:31;97149.97;;;11.04;100.00
31346;BME280;21711;49.708;18.568;2022-09-13T05:18:59;97153.09;;;11.11;100.00
31346;BME280;21711;49.708;18.568;2022-09-13T05:21:29;97151.34;;;11.31;100.00
31346;BME280;21711;49.708;18.568;2022-09-13T05:23:57;97147.13;;;11.54;100.00
31346;BME280;21711;49.708;18.568;2022-09-13T05:26:28;97152.34;;;12.08;100.00
31346;BME280;21711;49.708;18.568;2022-09-13T05:28:59;97153.97;;;12.48;100.00
31346;BME280;21711;49.708;18.568;2022-09-13T05:31:34;97155.28;;;12.65;100.00
31346;BME280;21711;49.708;18.568;2022-09-13T05:34:06;97154.97;;;12.85;100.00
31346;BME280;21711;49.708;18.568;2022-09-13T05:36:34;97158.31;;;13.24;100.00
31346;BME280;21711;49.708;18.568;2022-09-13T05:39:02;97162.25;;;13.74;100.00
31346;BME280;21711;49.708;18.568;2022-09-13T05:41:49;97173.16;;;14.52;100.00
31346;BME280;21711;49.708;18.568;2022-09-13T05:44:16;97165.19;;;15.20;100.00
31346;BME280;21711;49.708;18.568;2022-09-13T05:46:46;97166.94;;;15.57;100.00
31346;BME280;21711;49.708;18.568;2022-09-13T05:49:14;97167.94;;;16.19;100.00
31346;BME280;21711;49.708;18.568;2022-09-13T05:51:41;97170.63;;;16.46;100.00
31346;BME280;21711;49.708;18.568;2022-09-13T05:54:11;97169.81;;;17.16;100.00
31346;BME280;21711;49.708;18.568;2022-09-13T05:56:39;97171.81;;;17.28;100.00
31346;BME280;21711;49.708;18.568;2022-09-13T05:59:06;97179.31;;;17.43;100.00
31346;BME280;21711;49.708;18.568;2022-09-13T06:01:34;97179.88;;;17.67;100.00
31346;BME280;21711;49.708;18.568;2022-09-13T06:04:02;97184.50;;;18.60;100.00
31346;BME280;21711;49.708;18.568;2022-09-13T06:06:29;97184.19;;;18.40;100.00
31346;BME280;21711;49.708;18.568;2022-09-13T06:08:57;97183.13;;;19.30;100.00
31346;BME280;21711;49.708;18.568;2022-09-13T06:11:25;97191.94;;;19.18;100.00
31346;BME280;21711;49.708;18.568;2022-09-13T06:13:52;97188.78;;;19.63;100.00
31346;BME280;21711;49.708;18.568;2022-09-13T06:16:20;97187.69;;;19.30;100.00
31346;BME280;21711;49.708;18.568;2022-09-13T06:18:48;97188.44;;;20.14;91.58
31346;BME280;21711;49.708;18.568;2022-09-13T06:21:19;97195.00;;;20.42;92.32
31346;BME280;21711;49.708;18.568;2022-09-13T06:23:53;97202.72;;;20.72;90.03
31346;BME280;21711;49.708;18.568;2022-09-13T06:26:23;97197.91;;;21.67;79.20
31346;BME280;21711;49.708;18.568;2022-09-13T06:28:55;97188.44;;;22.05;77.83
31346;BME280;21711;49.708;18.568;2022-09-13T06:31:25;97187.00;;;22.47;70.53
31346;BME280;21711;49.708;18.568;2022-09-13T06:33:59;97190.09;;;21.46;71.12
31346;BME280;21711;49.708;18.568;2022-09-13T06:36:28;97183.84;;;21.41;73.29
31346;BME280;21711;49.708;18.568;2022-09-13T06:38:57;97187.16;;;21.67;72.29
31346;BME280;21711;49.708;18.568;2022-09-13T06:41:27;97182.03;;;21.46;71.64
31346;BME280;21711;49.708;18.568;2022-09-13T06:43:56;97177.88;;;21.64;70.99
31346;BME280;21711;49.708;18.568;2022-09-13T06:46:27;97169.13;;;21.67;70.59
31346;BME280;21711;49.708;18.568;2022-09-13T06:48:59;97173.13;;;21.74;70.39
31346;BME280;21711;49.708;18.568;2022-09-13T06:51:27;97171.13;;;22.42;57.22
31346;BME280;21711;49.708;18.568;2022-09-13T06:53:56;97169.66;;;22.09;56.48
31346;BME280;21711;49.708;18.568;2022-09-13T06:56:33;97165.53;;;21.31;58.82
31346;BME280;21711;49.708;18.568;2022-09-13T06:59:04;97166.56;;;21.26;59.99
31346;BME280;21711;49.708;18.568;2022-09-13T07:01:38;97164.22;;;21.57;58.62
31346;BME280;21711;49.708;18.568;2022-09-13T07:04:15;97169.13;;;21.51;58.52
31346;BME280;21711;49.708;18.568;2022-09-13T07:06:46;97163.13;;;21.58;56.74
31346;BME280;21711;49.708;18.568;2022-09-13T07:09:19;97174.63;;;22.43;56.53
31346;BME280;21711;49.708;18.568;2022-09-13T07:11:53;97170.50;;;22.49;55.04
31346;BME280;21711;49.708;18.568;2022-09-13T07:14:24;97168.88;;;23.04;54.95
31346;BME280;21711;49.708;18.568;2022-09-13T07:16:53;97173.69;;;23.84;53.01
31346;BME280;21711;49.708;18.568;2022-09-13T07:19:25;97169.88;;;24.12;51.71
31346;BME280;21711;49.708;18.568;2022-09-13T07:21:55;97170.47;;;24.29;50.92
31346;BME280;21711;49.708;18.568;2022-09-13T07:24:23;97174.53;;;24.15;51.47
31346;BME280;21711;49.708;18.568;2022-09-13T07:26:50;97169.41;;;24.37;49.53
31346;BME280;21711;49.708;18.568;2022-09-13T07:29:20;97167.22;;;24.47;50.76
31346;BME280;21711;49.708;18.568;2022-09-13T07:31:52;97170.78;;;25.27;49.17
31346;BME280;21711;49.708;18.568;2022-09-13T07:34:23;97170.13;;;25.41;47.57
31346;BME280;21711;49.708;18.568;2022-09-13T07:36:50;97172.75;;;24.88;47.77
31346;BME280;21711;49.708;18.568;2022-09-13T07:39:18;97174.09;;;24.75;48.53
31346;BME280;21711;49.708;18.568;2022-09-13T07:41:50;97177.91;;;25.04;47.85
31346;BME280;21711;49.708;18.568;2022-09-13T07:44:17;97177.56;;;25.51;47.12
31346;BME280;21711;49.708;18.568;2022-09-13T07:46:44;97178.53;;;24.56;46.40
31346;BME280;21711;49.708;18.568;2022-09-13T07:49:15;97170.38;;;24.22;48.03
31346;BME280;21711;49.708;18.568;2022-09-13T07:51:43;97170.59;;;25.08;46.34
31346;BME280;21711;49.708;18.568;2022-09-13T07:54:15;97166.50;;;25.67;46.62
31346;BME280;21711;49.708;18.568;2022-09-13T07:56:42;97169.22;;;26.27;45.04
31346;BME280;21711;49.708;18.568;2022-09-13T07:59:14;97158.97;;;25.98;44.66
31346;BME280;21711;49.708;18.568;2022-09-13T08:01:47;97172.28;;;27.54;42.45
31346;BME280;21711;49.708;18.568;2022-09-13T08:04:18;97163.97;;;28.45;39.25
31346;BME280;21711;49.708;18.568;2022-09-13T08:06:47;97166.91;;;28.80;38.16
31346;BME280;21711;49.708;18.568;2022-09-13T08:09:15;97169.50;;;29.62;37.87
31346;BME280;21711;49.708;18.568;2022-09-13T08:11:46;97169.69;;;29.86;35.48
31346;BME280;21711;49.708;18.568;2022-09-13T08:14:16;97172.91;;;30.16;35.05
31346;BME280;21711;49.708;18.568;2022-09-13T08:16:44;97168.19;;;29.82;35.10
31346;BME280;21711;49.708;18.568;2022-09-13T08:19:16;97164.09;;;30.39;35.51
31346;BME280;21711;49.708;18.568;2022-09-13T08:21:44;97172.09;;;32.32;33.02
31346;BME280;21711;49.708;18.568;2022-09-13T08:24:15;97158.94;;;30.80;34.03
31346;BME280;21711;49.708;18.568;2022-09-13T08:26:43;97162.53;;;29.61;37.41
31346;BME280;21711;49.708;18.568;2022-09-13T08:29:12;97157.44;;;28.17;38.57
31346;BME280;21711;49.708;18.568;2022-09-13T08:31:40;97160.97;;;28.07;40.97
31346;BME280;21711;49.708;18.568;2022-09-13T08:34:13;97158.50;;;28.49;38.95
31346;BME280;21711;49.708;18.568;2022-09-13T08:36:42;97160.47;;;29.23;39.56
31346;BME280;21711;49.708;18.568;2022-09-13T08:39:10;97157.63;;;29.87;37.10
31346;BME280;21711;49.708;18.568;2022-09-13T08:44:34;97150.72;;;30.17;34.95
31346;BME280;21711;49.708;18.568;2022-09-13T08:48:02;97145.69;;;29.74;35.07
31346;BME280;21711;49.708;18.568;2022-09-13T08:50:33;97143.22;;;30.88;33.92
31346;BME280;21711;49.708;18.568;2022-09-13T08:53:22;97143.81;;;32.19;32.20
31346;BME280;21711;49.708;18.568;2022-09-13T08:56:54;97137.03;;;32.84;31.18
31346;BME280;21711;49.708;18.568;2022-09-13T09:07:08;97142.31;;;31.49;32.02
31346;BME280;21711;49.708;18.568;2022-09-13T09:10:02;97133.44;;;32.30;30.82
31346;BME280;21711;49.708;18.568;2022-09-13T09:12:53;97135.00;;;33.38;30.53
31346;BME280;21711;49.708;18.568;2022-09-13T09:15:38;97140.38;;;34.47;29.07
31346;BME280;21711;49.708;18.568;2022-09-13T09:18:41;97124.97;;;33.31;29.41
31346;BME280;21711;49.708;18.568;2022-09-13T09:21:17;97123.78;;;33.49;29.81
31346;BME280;21711;49.708;18.568;2022-09-13T09:23:51;97122.47;;;35.34;26.65
31346;BME280;21711;49.708;18.568;2022-09-13T09:26:22;97123.47;;;35.98;25.34
31346;BME280;21711;49.708;18.568;2022-09-13T09:32:13;97105.59;;;36.02;24.92
31346;BME280;21711;49.708;18.568;2022-09-13T09:37:33;97107.28;;;36.22;26.32
31346;BME280;21711;49.708;18.568;2022-09-13T09:40:05;97098.56;;;36.24;25.48
31346;BME280;21711;49.708;18.568;2022-09-13T09:42:47;97100.56;;;36.23;25.73
31346;BME280;21711;49.708;18.568;2022-09-13T09:45:32;97099.47;;;37.62;24.53
31346;BME280;21711;49.708;18.568;2022-09-13T09:48:07;97099.88;;;37.52;22.72
31346;BME280;21711;49.708;18.568;2022-09-13T09:50:46;97092.00;;;34.80;25.29
31346;BME280;21711;49.708;18.568;2022-09-13T09:53:34;97088.00;;;35.20;26.36
31346;BME280;21711;49.708;18.568;2022-09-13T09:56:18;97083.41;;;34.52;26.43
31346;BME280;21711;49.708;18.568;2022-09-13T09:58:46;97086.91;;;34.91;25.90
31346;BME280;21711;49.708;18.568;2022-09-13T10:01:31;97087.03;;;34.87;26.36
31346;BME280;21711;49.708;18.568;2022-09-13T10:04:23;97087.66;;;33.54;26.76
31346;BME280;21711;49.708;18.568;2022-09-13T10:06:51;97082.84;;;32.75;28.19
31346;BME280;21711;49.708;18.568;2022-09-13T10:09:37;97093.09;;;34.82;26.81
31346;BME280;21711;49.708;18.568;2022-09-13T10:12:05;97091.63;;;35.17;25.82
31346;BME280;21711;49.708;18.568;2022-09-13T10:14:44;97090.25;;;34.73;25.61
31346;BME280;21711;49.708;18.568;2022-09-13T10:17:26;97075.72;;;34.59;26.15
31346;BME280;21711;49.708;18.568;2022-09-13T10:22:40;97076.41;;;34.63;26.26
31346;BME280;21711;49.708;18.568;2022-09-13T10:25:21;97067.78;;;32.67;28.12
31346;BME280;21711;49.708;18.568;2022-09-13T10:27:55;97066.59;;;32.85;27.86
31346;BME280;21711;49.708;18.568;2022-09-13T10:30:39;97068.22;;;32.82;30.30
31346;BME280;21711;49.708;18.568;2022-09-13T10:33:42;97075.09;;;33.24;27.27
31346;BME280;21711;49.708;18.568;2022-09-13T10:36:29;97061.66;;;32.96;27.69
31346;BME280;21711;49.708;18.568;2022-09-13T10:39:20;97065.16;;;32.80;27.64
31346;BME280;21711;49.708;18.568;2022-09-13T10:42:07;97064.94;;;34.39;25.97
31346;BME280;21711;49.708;18.568;2022-09-13T10:44:50;97055.50;;;35.05;27.12
31346;BME280;21711;49.708;18.568;2022-09-13T10:47:29;97054.84;;;35.14;25.76
31346;BME280;21711;49.708;18.568;2022-09-13T10:50:23;97042.97;;;33.41;27.53
31346;BME280;21711;49.708;18.568;2022-09-13T10:52:53;97035.75;;;32.51;27.99
31346;BME280;21711;49.708;18.568;2022-09-13T10:55:52;97031.41;;;32.33;29.76
31346;BME280;21711;49.708;18.568;2022-09-13T10:58:20;97032.56;;;33.49;29.05
31346;BME280;21711;49.708;18.568;2022-09-13T11:06:46;97025.91;;;33.79;26.82
31346;BME280;21711;49.708;18.568;2022-09-13T11:09:47;97029.16;;;33.44;27.60
31346;BME280;21711;49.708;18.568;2022-09-13T11:21:24;97028.28;;;32.85;28.11
31346;BME280;21711;49.708;18.568;2022-09-13T11:30:22;97011.63;;;29.55;31.35
31346;BME280;21711;49.708;18.568;2022-09-13T11:56:37;96967.75;;;29.07;33.13
31346;BME280;21711;49.708;18.568;2022-09-13T12:02:09;96954.59;;;29.02;34.14
31346;BME280;21711;49.708;18.568;2022-09-13T12:04:59;96932.59;;;27.47;37.26
31346;BME280;21711;49.708;18.568;2022-09-13T12:10:51;96933.50;;;26.45;38.33
31346;BME280;21711;49.708;18.568;2022-09-13T12:13:24;96927.31;;;26.59;40.33
31346;BME280;21711;49.708;18.568;2022-09-13T12:16:01;96932.31;;;27.08;41.96
31346;BME280;21711;49.708;18.568;2022-09-13T12:18:45;96935.81;;;26.58;39.24
31346;BME280;21711;49.708;18.568;2022-09-13T12:21:20;96937.28;;;25.97;40.45
31346;BME280;21711;49.708;18.568;2022-09-13T12:24:12;96939.28;;;26.36;40.34
31346;BME280;21711;49.708;18.568;2022-09-13T12:27:08;96929.91;;;25.90;42.05
31346;BME280;21711;49.708;18.568;2022-09-13T12:29:50;96923.44;;;25.24;42.61
31346;BME280;21711;49.708;18.568;2022-09-13T12:32:19;96920.91;;;24.45;44.36
31346;BME280;21711;49.708;18.568;2022-09-13T12:34:56;96924.97;;;24.24;46.38
31346;BME280;21711;49.708;18.568;2022-09-13T12:58:41;96899.38;;;24.10;44.77
31346;BME280;21711;49.708;18.568;2022-09-13T13:01:20;96884.56;;;24.35;43.56
31346;BME280;21711;49.708;18.568;2022-09-13T13:03:57;96868.47;;;24.49;45.77
31346;BME280;21711;49.708;18.568;2022-09-13T13:06:28;96885.13;;;24.55;43.17
31346;BME280;21711;49.708;18.568;2022-09-13T13:09:23;96881.53;;;24.02;44.54
31346;BME280;21711;49.708;18.568;2022-09-13T13:11:55;96881.50;;;23.98;46.68
31346;BME280;21711;49.708;18.568;2022-09-13T13:14:45;96870.41;;;24.07;46.47
31346;BME280;21711;49.708;18.568;2022-09-13T13:17:47;96878.69;;;24.22;46.72
31346;BME280;21711;49.708;18.568;2022-09-13T13:26:07;96864.84;;;23.51;48.91
31346;BME280;21711;49.708;18.568;2022-09-13T13:41:59;96853.34;;;21.76;52.32
31346;BME280;21711;49.708;18.568;2022-09-13T14:00:16;96834.97;;;21.58;55.27
31346;BME280;21711;49.708;18.568;2022-09-13T14:19:53;96811.97;;;21.21;59.85
31346;BME280;21711;49.708;18.568;2022-09-13T14:22:25;96810.69;;;21.35;56.73
31346;BME280;21711;49.708;18.568;2022-09-13T14:24:56;96815.47;;;21.45;59.23
31346;BME280;21711;49.708;18.568;2022-09-13T14:27:34;96812.34;;;21.63;59.62
31346;BME280;21711;49.708;18.568;2022-09-13T14:30:33;96814.72;;;21.45;57.56
31346;BME280;21711;49.708;18.568;2022-09-13T14:33:01;96814.59;;;21.18;56.57
31346;BME280;21711;49.708;18.568;2022-09-13T14:35:37;96818.47;;;21.20;58.08
31346;BME280;21711;49.708;18.568;2022-09-13T14:38:22;96818.41;;;20.97;56.67
31346;BME280;21711;49.708;18.568;2022-09-13T14:40:59;96819.53;;;20.96;56.38
31346;BME280;21711;49.708;18.568;2022-09-13T14:43:28;96816.00;;;20.92;57.77
31346;BME280;21711;49.708;18.568;2022-09-13T14:48:49;96810.81;;;21.02;57.25
31346;BME280;21711;49.708;18.568;2022-09-13T14:51:23;96810.06;;;20.86;56.26
31346;BME280;21711;49.708;18.568;2022-09-13T14:56:58;96819.38;;;20.88;57.96
31346;BME280;21711;49.708;18.568;2022-09-13T14:59:44;96806.94;;;20.84;57.62
31346;BME280;21711;49.708;18.568;2022-09-13T15:02:24;96817.03;;;20.87;56.90
31346;BME280;21711;49.708;18.568;2022-09-13T15:04:56;96814.53;;;20.78;59.83
31346;BME280;21711;49.708;18.568;2022-09-13T15:07:30;96809.88;;;20.59;59.61
31346;BME280;21711;49.708;18.568;2022-09-13T15:10:21;96816.13;;;20.47;60.37
31346;BME280;21711;49.708;18.568;2022-09-13T15:21:04;96803.16;;;20.01;62.17
31346;BME280;21711;49.708;18.568;2022-09-13T15:23:34;96802.38;;;20.00;60.61
31346;BME280;21711;49.708;18.568;2022-09-13T15:28:56;96803.97;;;20.01;63.04
31346;BME280;21711;49.708;18.568;2022-09-13T15:31:28;96801.13;;;19.81;64.08
31346;BME280;21711;49.708;18.568;2022-09-13T15:36:45;96799.91;;;19.63;65.10
31346;BME280;21711;49.708;18.568;2022-09-13T15:39:19;96799.38;;;19.57;66.96
31346;BME280;21711;49.708;18.568;2022-09-13T15:41:55;96801.34;;;19.60;65.85
31346;BME280;21711;49.708;18.568;2022-09-13T15:44:23;96799.13;;;19.62;64.93
31346;BME280;21711;49.708;18.568;2022-09-13T15:46:58;96796.53;;;19.66;66.73
31346;BME280;21711;49.708;18.568;2022-09-13T15:49:28;96803.91;;;19.69;67.12
31346;BME280;21711;49.708;18.568;2022-09-13T15:51:59;96796.53;;;19.66;66.15
31346;BME280;21711;49.708;18.568;2022-09-13T15:54:38;96804.41;;;19.58;66.39
31346;BME280;21711;49.708;18.568;2022-09-13T15:57:12;96795.47;;;19.54;65.40
31346;BME280;21711;49.708;18.568;2022-09-13T15:59:40;96793.47;;;19.51;65.79
31346;BME280;21711;49.708;18.568;2022-09-13T16:02:30;96786.94;;;19.36;66.95
31346;BME280;21711;49.708;18.568;2022-09-13T16:04:59;96795.09;;;19.40;68.58
31346;BME280;21711;49.708;18.568;2022-09-13T16:07:26;96792.31;;;19.36;68.50
31346;BME280;21711;49.708;18.568;2022-09-13T16:09:54;96791.34;;;19.28;69.06
31346;BME280;21711;49.708;18.568;2022-09-13T16:12:21;96780.72;;;19.32;69.66
31346;BME280;21711;49.708;18.568;2022-09-13T16:14:50;96783.88;;;19.22;68.27
31346;BME280;21711;49.708;18.568;2022-09-13T16:17:20;96788.16;;;19.23;69.33
31346;BME280;21711;49.708;18.568;2022-09-13T16:19:48;96772.44;;;19.09;68.58
31346;BME280;21711;49.708;18.568;2022-09-13T16:22:16;96774.34;;;18.96;69.19
31346;BME280;21711;49.708;18.568;2022-09-13T16:24:44;96774.34;;;18.96;71.25
31346;BME280;21711;49.708;18.568;2022-09-13T16:27:17;96773.81;;;18.90;69.12
31346;BME280;21711;49.708;18.568;2022-09-13T16:29:44;96766.00;;;18.85;70.70
31346;BME280;21711;49.708;18.568;2022-09-13T16:32:12;96766.66;;;18.82;76.55
31346;BME280;21711;49.708;18.568;2022-09-13T16:34:39;96773.53;;;18.66;72.24
31346;BME280;21711;49.708;18.568;2022-09-13T16:37:07;96769.06;;;18.58;72.71
31346;BME280;21711;49.708;18.568;2022-09-13T16:39:34;96777.25;;;18.49;75.23
31346;BME280;21711;49.708;18.568;2022-09-13T16:42:02;96779.22;;;18.52;73.28
31346;BME280;21711;49.708;18.568;2022-09-13T16:44:30;96784.38;;;18.45;75.76
31346;BME280;21711;49.708;18.568;2022-09-13T16:46:58;96779.59;;;18.38;81.55
31346;BME280;21711;49.708;18.568;2022-09-13T16:49:25;96782.59;;;18.24;78.88
31346;BME280;21711;49.708;18.568;2022-09-13T16:51:53;96782.72;;;18.16;85.07
31346;BME280;21711;49.708;18.568;2022-09-13T16:54:20;96782.72;;;18.16;90.57
31346;BME280;21711;49.708;18.568;2022-09-13T16:56:48;96789.66;;;17.95;100.00
31346;BME280;21711;49.708;18.568;2022-09-13T16:59:15;96783.63;;;17.86;98.88